sensor_id;sensor_type;location;lat;lon;timestamp;pressure;altitude;pressure_sealevel;temperature;humidity
64698;BME280;51124;53.394;-6.294;2022-11-15T00:02:08;98344.92;;;17.28;12.27
64698;BME280;51124;53.394;-6.294;2022-11-15T00:04:41;98341.26;;;16.20;12.62
64698;BME280;51124;53.394;-6.294;2022-11-15T00:07:15;98334.78;;;15.81;12.81
64698;BME280;51124;53.394;-6.294;2022-11-15T00:09:48;98337.66;;;16.61;12.45
64698;BME280;51124;53.394;-6.294;2022-11-15T00:12:22;98322.30;;;17.03;12.12
64698;BME280;51124;53.394;-6.294;2022-11-15T00:14:55;98309.33;;;15.21;12.82
64698;BME280;51124;53.394;-6.294;2022-11-15T00:17:29;98310.45;;;16.38;12.39
64698;BME280;51124;53.394;-6.294;2022-11-15T00:20:03;98303.34;;;17.01;12.33
64698;BME280;51124;53.394;-6.294;2022-11-15T00:22:37;98308.11;;;15.91;12.64
64698;BME280;51124;53.394;-6.294;2022-11-15T00:25:10;98301.91;;;16.51;12.41
64698;BME280;51124;53.394;-6.294;2022-11-15T00:27:44;98295.89;;;16.90;12.52
64698;BME280;51124;53.394;-6.294;2022-11-15T00:30:17;98294.08;;;16.84;12.33
64698;BME280;51124;53.394;-6.294;2022-11-15T00:32:51;98281.14;;;17.20;12.35
64698;BME280;51124;53.394;-6.294;2022-11-15T00:35:24;98272.83;;;18.14;12.28
64698;BME280;51124;53.394;-6.294;2022-11-15T00:37:58;98268.80;;;17.43;12.21
64698;BME280;51124;53.394;-6.294;2022-11-15T00:40:32;98255.43;;;16.09;12.46
64698;BME280;51124;53.394;-6.294;2022-11-15T00:43:05;98266.48;;;15.40;12.85
64698;BME280;51124;53.394;-6.294;2022-11-15T00:45:38;98254.30;;;17.52;12.37
64698;BME280;51124;53.394;-6.294;2022-11-15T00:48:12;98247.80;;;17.10;12.11
64698;BME280;51124;53.394;-6.294;2022-11-15T00:50:46;98246.38;;;16.55;12.43
64698;BME280;51124;53.394;-6.294;2022-11-15T00:53:20;98239.05;;;16.39;12.59
64698;BME280;51124;53.394;-6.294;2022-11-15T00:55:53;98225.68;;;15.64;12.66
64698;BME280;51124;53.394;-6.294;2022-11-15T00:58:26;98225.97;;;16.27;12.50
64698;BME280;51124;53.394;-6.294;2022-11-15T01:01:06;98226.85;;;16.17;12.65
64698;BME280;51124;53.394;-6.294;2022-11-15T01:03:32;98230.25;;;19.75;12.49
64698;BME280;51124;53.394;-6.294;2022-11-15T01:05:58;98231.65;;;19.06;12.87
64698;BME280;51124;53.394;-6.294;2022-11-15T01:08:22;98226.93;;;17.75;13.15
64698;BME280;51124;53.394;-6.294;2022-11-15T01:11:00;98221.85;;;21.57;13.11
64698;BME280;51124;53.394;-6.294;2022-11-15T01:13:24;98215.02;;;20.43;14.04
64698;BME280;51124;53.394;-6.294;2022-11-15T01:15:58;98214.19;;;19.70;14.63
64698;BME280;51124;53.394;-6.294;2022-11-15T01:18:32;98209.30;;;19.27;14.95
64698;BME280;51124;53.394;-6.294;2022-11-15T01:21:08;98192.61;;;19.63;14.98
64698;BME280;51124;53.394;-6.294;2022-11-15T01:23:32;98185.26;;;18.79;15.28
64698;BME280;51124;53.394;-6.294;2022-11-15T01:26:10;98186.60;;;19.40;15.18
64698;BME280;51124;53.394;-6.294;2022-11-15T01:28:36;98179.27;;;19.91;15.18
64698;BME280;51124;53.394;-6.294;2022-11-15T01:31:01;98168.06;;;18.98;15.52
64698;BME280;51124;53.394;-6.294;2022-11-15T01:33:25;98166.04;;;19.62;15.10
64698;BME280;51124;53.394;-6.294;2022-11-15T01:36:03;98168.42;;;18.22;15.97
64698;BME280;51124;53.394;-6.294;2022-11-15T01:38:27;98157.57;;;19.26;15.58
64698;BME280;51124;53.394;-6.294;2022-11-15T01:41:01;98155.66;;;19.36;15.39
64698;BME280;51124;53.394;-6.294;2022-11-15T01:43:36;98147.57;;;19.44;15.30
64698;BME280;51124;53.394;-6.294;2022-11-15T01:46:22;98147.83;;;19.23;15.35
64698;BME280;51124;53.394;-6.294;2022-11-15T01:48:37;98134.01;;;19.41;15.51
64698;BME280;51124;53.394;-6.294;2022-11-15T01:51:13;98132.47;;;19.48;15.28
64698;BME280;51124;53.394;-6.294;2022-11-15T01:53:41;98131.00;;;20.38;15.23
64698;BME280;51124;53.394;-6.294;2022-11-15T01:56:08;98125.74;;;19.22;15.55
64698;BME280;51124;53.394;-6.294;2022-11-15T01:58:33;98122.20;;;19.92;15.23
64698;BME280;51124;53.394;-6.294;2022-11-15T02:01:07;98137.06;;;18.58;15.04
64698;BME280;51124;53.394;-6.294;2022-11-15T02:03:44;98204.77;;;16.56;14.64
64698;BME280;51124;53.394;-6.294;2022-11-15T02:06:10;98194.64;;;15.93;14.28
64698;BME280;51124;53.394;-6.294;2022-11-15T02:08:44;98189.33;;;16.87;13.99
64698;BME280;51124;53.394;-6.294;2022-11-15T02:11:17;98201.07;;;14.78;14.00
64698;BME280;51124;53.394;-6.294;2022-11-15T02:13:51;98208.94;;;15.14;13.75
64698;BME280;51124;53.394;-6.294;2022-11-15T02:16:31;98222.84;;;16.81;13.28
64698;BME280;51124;53.394;-6.294;2022-11-15T02:19:04;98229.91;;;16.79;12.94
64698;BME280;51124;53.394;-6.294;2022-11-15T02:21:36;98231.63;;;16.23;12.90
64698;BME280;51124;53.394;-6.294;2022-11-15T02:24:22;98244.74;;;16.64;12.83
64698;BME280;51124;53.394;-6.294;2022-11-15T02:26:50;98238.43;;;16.43;13.01
64698;BME280;51124;53.394;-6.294;2022-11-15T02:29:02;98238.71;;;16.36;12.53
64698;BME280;51124;53.394;-6.294;2022-11-15T02:31:29;98250.72;;;15.85;12.71
64698;BME280;51124;53.394;-6.294;2022-11-15T02:34:03;98243.72;;;14.78;13.10
64698;BME280;51124;53.394;-6.294;2022-11-15T02:36:35;98239.13;;;16.25;12.56
64698;BME280;51124;53.394;-6.294;2022-11-15T02:39:06;98242.87;;;16.43;12.76
64698;BME280;51124;53.394;-6.294;2022-11-15T02:41:35;98241.86;;;16.54;12.61
64698;BME280;51124;53.394;-6.294;2022-11-15T02:44:05;98250.00;;;15.81;12.83
64698;BME280;51124;53.394;-6.294;2022-11-15T02:46:36;98259.61;;;15.87;12.68
64698;BME280;51124;53.394;-6.294;2022-11-15T02:49:00;98268.19;;;16.05;12.65
64698;BME280;51124;53.394;-6.294;2022-11-15T02:51:34;98259.04;;;15.75;12.46
64698;BME280;51124;53.394;-6.294;2022-11-15T02:54:11;98266.05;;;15.76;12.59
64698;BME280;51124;53.394;-6.294;2022-11-15T02:56:35;98261.77;;;16.43;12.45
64698;BME280;51124;53.394;-6.294;2022-11-15T02:59:20;98271.42;;;17.02;12.29
64698;BME280;51124;53.394;-6.294;2022-11-15T03:01:43;98281.04;;;15.84;12.69
64698;BME280;51124;53.394;-6.294;2022-11-15T03:04:21;98278.05;;;16.25;12.55
64698;BME280;51124;53.394;-6.294;2022-11-15T03:06:42;98270.81;;;15.81;12.42
64698;BME280;51124;53.394;-6.294;2022-11-15T03:09:11;98278.35;;;16.89;12.20
64698;BME280;51124;53.394;-6.294;2022-11-15T03:11:42;98279.68;;;15.59;12.62
64698;BME280;51124;53.394;-6.294;2022-11-15T03:14:19;98281.59;;;16.47;12.45
64698;BME280;51124;53.394;-6.294;2022-11-15T03:16:47;98280.81;;;15.33;12.70
64698;BME280;51124;53.394;-6.294;2022-11-15T03:19:18;98280.10;;;16.49;12.44
64698;BME280;51124;53.394;-6.294;2022-11-15T03:21:45;98276.06;;;16.57;12.27
64698;BME280;51124;53.394;-6.294;2022-11-15T03:24:12;98266.15;;;16.52;12.39
64698;BME280;51124;53.394;-6.294;2022-11-15T03:26:38;98277.61;;;16.58;12.54
64698;BME280;51124;53.394;-6.294;2022-11-15T03:29:08;98279.89;;;16.68;12.45
64698;BME280;51124;53.394;-6.294;2022-11-15T03:31:36;98287.35;;;16.03;12.52
64698;BME280;51124;53.394;-6.294;2022-11-15T03:34:05;98293.52;;;15.41;12.48
64698;BME280;51124;53.394;-6.294;2022-11-15T03:36:32;98296.71;;;16.87;12.45
64698;BME280;51124;53.394;-6.294;2022-11-15T03:38:58;98292.30;;;16.27;12.49
64698;BME280;51124;53.394;-6.294;2022-11-15T03:41:28;98292.52;;;16.82;12.35
64698;BME280;51124;53.394;-6.294;2022-11-15T03:43:54;98291.35;;;17.15;11.91
64698;BME280;51124;53.394;-6.294;2022-11-15T03:46:24;98299.16;;;15.83;12.09
64698;BME280;51124;53.394;-6.294;2022-11-15T03:48:52;98296.56;;;17.66;11.97
64698;BME280;51124;53.394;-6.294;2022-11-15T03:51:17;98287.91;;;16.00;12.31
64698;BME280;51124;53.394;-6.294;2022-11-15T03:53:51;98288.04;;;19.32;12.26
64698;BME280;51124;53.394;-6.294;2022-11-15T03:56:25;98285.74;;;17.24;13.51
64698;BME280;51124;53.394;-6.294;2022-11-15T03:58:59;98286.34;;;16.60;13.40
64698;BME280;51124;53.394;-6.294;2022-11-15T04:01:33;98285.70;;;19.38;13.67
64698;BME280;51124;53.394;-6.294;2022-11-15T04:04:07;98283.15;;;18.62;14.71
64698;BME280;51124;53.394;-6.294;2022-11-15T04:06:41;98279.69;;;19.78;14.36
64698;BME280;51124;53.394;-6.294;2022-11-15T04:09:15;98275.34;;;19.23;14.70
64698;BME280;51124;53.394;-6.294;2022-11-15T04:11:49;98268.14;;;18.89;15.02
64698;BME280;51124;53.394;-6.294;2022-11-15T04:14:23;98265.44;;;19.28;14.75
64698;BME280;51124;53.394;-6.294;2022-11-15T04:16:57;98263.72;;;18.13;15.47
64698;BME280;51124;53.394;-6.294;2022-11-15T04:19:31;98261.25;;;18.07;15.83
64698;BME280;51124;53.394;-6.294;2022-11-15T04:22:07;98267.54;;;19.25;15.15
64698;BME280;51124;53.394;-6.294;2022-11-15T04:24:31;98268.60;;;18.71;15.58
64698;BME280;51124;53.394;-6.294;2022-11-15T04:27:05;98265.93;;;18.96;15.26
64698;BME280;51124;53.394;-6.294;2022-11-15T04:29:39;98274.95;;;19.16;15.32
64698;BME280;51124;53.394;-6.294;2022-11-15T04:32:12;98269.96;;;18.06;15.43
64698;BME280;51124;53.394;-6.294;2022-11-15T04:34:46;98269.23;;;19.32;15.14
64698;BME280;51124;53.394;-6.294;2022-11-15T04:37:20;98274.83;;;19.54;15.07
64698;BME280;51124;53.394;-6.294;2022-11-15T04:39:54;98278.61;;;18.71;15.41
64698;BME280;51124;53.394;-6.294;2022-11-15T04:42:28;98279.80;;;17.57;15.91
64698;BME280;51124;53.394;-6.294;2022-11-15T04:45:03;98287.72;;;18.17;15.71
64698;BME280;51124;53.394;-6.294;2022-11-15T04:47:37;98287.49;;;18.39;15.54
64698;BME280;51124;53.394;-6.294;2022-11-15T04:50:11;98289.54;;;18.24;15.65
64698;BME280;51124;53.394;-6.294;2022-11-15T04:52:51;98289.99;;;15.37;15.28
64698;BME280;51124;53.394;-6.294;2022-11-15T04:55:15;98279.96;;;15.54;14.45
64698;BME280;51124;53.394;-6.294;2022-11-15T04:57:57;98278.01;;;15.38;14.39
64698;BME280;51124;53.394;-6.294;2022-11-15T05:00:21;98280.01;;;17.07;13.62
64698;BME280;51124;53.394;-6.294;2022-11-15T05:02:55;98280.66;;;14.53;13.71
64698;BME280;51124;53.394;-6.294;2022-11-15T05:05:28;98278.99;;;16.01;13.26
64698;BME280;51124;53.394;-6.294;2022-11-15T05:08:02;98269.31;;;16.75;12.85
64698;BME280;51124;53.394;-6.294;2022-11-15T05:10:35;98270.21;;;15.71;12.91
64698;BME280;51124;53.394;-6.294;2022-11-15T05:13:09;98283.85;;;16.85;13.04
64698;BME280;51124;53.394;-6.294;2022-11-15T05:15:42;98288.62;;;16.31;12.67
64698;BME280;51124;53.394;-6.294;2022-11-15T05:18:16;98288.50;;;15.40;12.96
64698;BME280;51124;53.394;-6.294;2022-11-15T05:20:49;98294.15;;;16.30;12.46
64698;BME280;51124;53.394;-6.294;2022-11-15T05:23:23;98290.10;;;15.32;12.72
64698;BME280;51124;53.394;-6.294;2022-11-15T05:25:58;98300.09;;;16.98;12.29
64698;BME280;51124;53.394;-6.294;2022-11-15T05:28:22;98306.74;;;16.25;12.48
64698;BME280;51124;53.394;-6.294;2022-11-15T05:31:00;98308.26;;;15.47;12.70
64698;BME280;51124;53.394;-6.294;2022-11-15T05:33:24;98306.87;;;16.24;12.25
64698;BME280;51124;53.394;-6.294;2022-11-15T05:36:00;98302.76;;;16.71;12.11
64698;BME280;51124;53.394;-6.294;2022-11-15T05:38:25;98303.36;;;15.93;12.51
64698;BME280;51124;53.394;-6.294;2022-11-15T05:40:59;98319.30;;;15.93;12.35
64698;BME280;51124;53.394;-6.294;2022-11-15T05:43:35;98326.98;;;15.98;12.19
64698;BME280;51124;53.394;-6.294;2022-11-15T05:46:02;98333.90;;;16.87;12.06
64698;BME280;51124;53.394;-6.294;2022-11-15T05:48:25;98342.03;;;16.99;12.10
64698;BME280;51124;53.394;-6.294;2022-11-15T05:50:59;98354.16;;;15.51;12.46
64698;BME280;51124;53.394;-6.294;2022-11-15T05:53:34;98348.31;;;16.45;12.09
64698;BME280;51124;53.394;-6.294;2022-11-15T05:55:59;98342.82;;;16.59;12.00
64698;BME280;51124;53.394;-6.294;2022-11-15T05:58:33;98349.38;;;15.65;12.15
64698;BME280;51124;53.394;-6.294;2022-11-15T06:01:06;98343.50;;;15.08;12.67
64698;BME280;51124;53.394;-6.294;2022-11-15T06:03:40;98334.59;;;15.68;12.47
64698;BME280;51124;53.394;-6.294;2022-11-15T06:06:13;98336.26;;;16.11;12.24
64698;BME280;51124;53.394;-6.294;2022-11-15T06:08:47;98343.08;;;15.86;12.34
64698;BME280;51124;53.394;-6.294;2022-11-15T06:11:20;98353.07;;;15.12;12.53
64698;BME280;51124;53.394;-6.294;2022-11-15T06:13:54;98367.67;;;15.19;12.48
64698;BME280;51124;53.394;-6.294;2022-11-15T06:16:27;98370.50;;;16.14;12.35
64698;BME280;51124;53.394;-6.294;2022-11-15T06:19:01;98346.26;;;16.09;12.40
64698;BME280;51124;53.394;-6.294;2022-11-15T06:21:34;98340.64;;;17.22;11.90
64698;BME280;51124;53.394;-6.294;2022-11-15T06:24:08;98337.41;;;15.65;12.38
64698;BME280;51124;53.394;-6.294;2022-11-15T06:26:41;98350.32;;;14.86;12.68
64698;BME280;51124;53.394;-6.294;2022-11-15T06:29:15;98355.06;;;16.33;12.63
64698;BME280;51124;53.394;-6.294;2022-11-15T06:31:48;98342.44;;;16.69;12.18
64698;BME280;51124;53.394;-6.294;2022-11-15T06:34:21;98341.35;;;15.69;12.32
64698;BME280;51124;53.394;-6.294;2022-11-15T06:36:55;98338.02;;;15.35;12.33
64698;BME280;51124;53.394;-6.294;2022-11-15T06:39:28;98341.97;;;15.56;12.37
64698;BME280;51124;53.394;-6.294;2022-11-15T06:42:02;98342.81;;;15.95;12.25
64698;BME280;51124;53.394;-6.294;2022-11-15T06:44:36;98346.88;;;17.83;12.52
64698;BME280;51124;53.394;-6.294;2022-11-15T06:47:09;98346.28;;;18.46;12.79
64698;BME280;51124;53.394;-6.294;2022-11-15T06:49:43;98353.38;;;17.25;13.21
64698;BME280;51124;53.394;-6.294;2022-11-15T06:52:17;98366.66;;;16.51;13.22
64698;BME280;51124;53.394;-6.294;2022-11-15T06:54:51;98359.66;;;18.87;14.02
64698;BME280;51124;53.394;-6.294;2022-11-15T06:57:25;98358.74;;;18.81;14.36
64698;BME280;51124;53.394;-6.294;2022-11-15T06:59:59;98373.47;;;18.60;14.69
64698;BME280;51124;53.394;-6.294;2022-11-15T07:02:32;98377.33;;;18.60;14.69
64698;BME280;51124;53.394;-6.294;2022-11-15T07:05:07;98383.54;;;18.63;15.19
64698;BME280;51124;53.394;-6.294;2022-11-15T07:07:41;98387.64;;;18.36;15.19
64698;BME280;51124;53.394;-6.294;2022-11-15T07:10:15;98387.62;;;18.50;15.34
64698;BME280;51124;53.394;-6.294;2022-11-15T07:12:49;98392.27;;;18.63;15.32
64698;BME280;51124;53.394;-6.294;2022-11-15T07:15:25;98400.09;;;18.32;15.58
64698;BME280;51124;53.394;-6.294;2022-11-15T07:17:49;98399.13;;;18.24;15.60
64698;BME280;51124;53.394;-6.294;2022-11-15T07:20:24;98407.38;;;17.00;16.00
64698;BME280;51124;53.394;-6.294;2022-11-15T07:23:00;98399.33;;;18.36;15.50
64698;BME280;51124;53.394;-6.294;2022-11-15T07:25:23;98406.63;;;16.95;16.11
64698;BME280;51124;53.394;-6.294;2022-11-15T07:27:58;98401.61;;;17.44;15.93
64698;BME280;51124;53.394;-6.294;2022-11-15T07:30:32;98392.57;;;17.70;15.55
64698;BME280;51124;53.394;-6.294;2022-11-15T07:33:06;98389.14;;;17.81;15.78
64698;BME280;51124;53.394;-6.294;2022-11-15T07:35:40;98394.90;;;17.73;15.66
64698;BME280;51124;53.394;-6.294;2022-11-15T07:38:14;98401.41;;;17.32;15.74
64698;BME280;51124;53.394;-6.294;2022-11-15T07:40:55;98393.43;;;18.00;15.56
64698;BME280;51124;53.394;-6.294;2022-11-15T07:43:19;98394.29;;;16.43;15.97
64698;BME280;51124;53.394;-6.294;2022-11-15T07:45:53;98387.59;;;15.85;14.86
64698;BME280;51124;53.394;-6.294;2022-11-15T07:48:27;98385.04;;;15.45;14.37
64698;BME280;51124;53.394;-6.294;2022-11-15T07:51:00;98389.10;;;14.98;14.27
64698;BME280;51124;53.394;-6.294;2022-11-15T07:53:34;98390.14;;;14.51;14.28
64698;BME280;51124;53.394;-6.294;2022-11-15T07:56:08;98387.47;;;16.53;14.28
64698;BME280;51124;53.394;-6.294;2022-11-15T07:58:41;98386.74;;;13.02;15.98
64698;BME280;51124;53.394;-6.294;2022-11-15T08:01:15;98380.43;;;13.55;15.93
64698;BME280;51124;53.394;-6.294;2022-11-15T08:03:48;98381.57;;;11.59;16.22
64698;BME280;51124;53.394;-6.294;2022-11-15T08:06:22;98386.54;;;14.27;14.70
64698;BME280;51124;53.394;-6.294;2022-11-15T08:08:56;98385.98;;;13.19;15.17
64698;BME280;51124;53.394;-6.294;2022-11-15T08:11:29;98392.82;;;11.96;15.56
64698;BME280;51124;53.394;-6.294;2022-11-15T08:14:03;98394.00;;;12.43;15.40
64698;BME280;51124;53.394;-6.294;2022-11-15T08:16:36;98401.20;;;11.73;15.33
64698;BME280;51124;53.394;-6.294;2022-11-15T08:19:10;98400.40;;;12.57;15.02
64698;BME280;51124;53.394;-6.294;2022-11-15T08:21:43;98397.50;;;13.67;14.56
64698;BME280;51124;53.394;-6.294;2022-11-15T08:24:17;98395.93;;;13.33;15.11
64698;BME280;51124;53.394;-6.294;2022-11-15T08:26:50;98385.40;;;12.72;15.43
64698;BME280;51124;53.394;-6.294;2022-11-15T08:29:24;98382.53;;;12.26;15.33
64698;BME280;51124;53.394;-6.294;2022-11-15T08:31:57;98392.61;;;12.63;15.12
64698;BME280;51124;53.394;-6.294;2022-11-15T08:34:31;98398.97;;;13.07;14.84
64698;BME280;51124;53.394;-6.294;2022-11-15T08:37:07;98401.53;;;14.90;14.79
64698;BME280;51124;53.394;-6.294;2022-11-15T08:39:31;98405.33;;;17.80;15.72
64698;BME280;51124;53.394;-6.294;2022-11-15T08:42:16;98410.03;;;17.23;15.11
64698;BME280;51124;53.394;-6.294;2022-11-15T08:44:39;98411.23;;;14.90;13.84
64698;BME280;51124;53.394;-6.294;2022-11-15T08:47:13;98417.18;;;14.56;13.76
64698;BME280;51124;53.394;-6.294;2022-11-15T08:49:47;98419.80;;;13.54;14.30
64698;BME280;51124;53.394;-6.294;2022-11-15T08:52:21;98419.40;;;14.17;14.32
64698;BME280;51124;53.394;-6.294;2022-11-15T08:54:54;98418.13;;;13.92;14.43
64698;BME280;51124;53.394;-6.294;2022-11-15T08:57:28;98416.68;;;13.85;14.07
64698;BME280;51124;53.394;-6.294;2022-11-15T09:00:12;98409.53;;;13.54;14.29
64698;BME280;51124;53.394;-6.294;2022-11-15T09:02:37;98406.86;;;12.92;14.15
64698;BME280;51124;53.394;-6.294;2022-11-15T09:05:01;98408.66;;;13.83;14.07
64698;BME280;51124;53.394;-6.294;2022-11-15T09:07:34;98405.99;;;14.10;13.63
64698;BME280;51124;53.394;-6.294;2022-11-15T09:10:08;98399.15;;;14.96;13.81
64698;BME280;51124;53.394;-6.294;2022-11-15T09:12:42;98400.80;;;14.59;14.03
64698;BME280;51124;53.394;-6.294;2022-11-15T09:15:16;98400.39;;;15.00;14.00
64698;BME280;51124;53.394;-6.294;2022-11-15T09:17:49;98397.30;;;15.13;13.65
64698;BME280;51124;53.394;-6.294;2022-11-15T09:20:23;98387.48;;;16.00;13.22
64698;BME280;51124;53.394;-6.294;2022-11-15T09:22:59;98381.50;;;15.49;13.08
64698;BME280;51124;53.394;-6.294;2022-11-15T09:25:22;98379.08;;;15.62;13.27
64698;BME280;51124;53.394;-6.294;2022-11-15T09:27:56;98380.43;;;15.82;13.37
64698;BME280;51124;53.394;-6.294;2022-11-15T09:30:30;98381.56;;;14.35;13.69
64698;BME280;51124;53.394;-6.294;2022-11-15T09:33:06;98384.78;;;15.04;13.58
64698;BME280;51124;53.394;-6.294;2022-11-15T09:35:31;98381.72;;;14.61;13.25
64698;BME280;51124;53.394;-6.294;2022-11-15T09:38:04;98378.87;;;15.55;13.23
64698;BME280;51124;53.394;-6.294;2022-11-15T09:40:38;98376.95;;;14.76;13.33
64698;BME280;51124;53.394;-6.294;2022-11-15T09:43:27;98377.67;;;15.26;13.27
64698;BME280;51124;53.394;-6.294;2022-11-15T09:45:49;98372.50;;;18.04;13.34
64698;BME280;51124;53.394;-6.294;2022-11-15T09:48:23;98374.92;;;18.69;13.78
64698;BME280;51124;53.394;-6.294;2022-11-15T09:50:41;98376.67;;;16.96;14.06
64698;BME280;51124;53.394;-6.294;2022-11-15T09:53:10;98378.92;;;16.19;14.03
64698;BME280;51124;53.394;-6.294;2022-11-15T09:53:25;98375.86;;;16.13;14.04
64698;BME280;51124;53.394;-6.294;2022-11-15T09:55:55;98364.98;;;15.19;14.00
64698;BME280;51124;53.394;-6.294;2022-11-15T09:58:26;98360.69;;;19.02;14.56
64698;BME280;51124;53.394;-6.294;2022-11-15T10:00:52;98362.22;;;17.88;15.38
64698;BME280;51124;53.394;-6.294;2022-11-15T10:03:30;98361.53;;;18.78;15.51
64698;BME280;51124;53.394;-6.294;2022-11-15T10:05:59;98366.73;;;19.06;15.48
64698;BME280;51124;53.394;-6.294;2022-11-15T10:08:35;98371.47;;;18.54;15.81
64698;BME280;51124;53.394;-6.294;2022-11-15T10:10:54;98373.38;;;18.15;15.99
64698;BME280;51124;53.394;-6.294;2022-11-15T10:13:23;98375.73;;;18.76;15.65
64698;BME280;51124;53.394;-6.294;2022-11-15T10:15:47;98369.73;;;19.35;15.47
64698;BME280;51124;53.394;-6.294;2022-11-15T10:18:26;98379.11;;;19.76;15.19
64698;BME280;51124;53.394;-6.294;2022-11-15T10:20:57;98378.10;;;18.64;15.80
64698;BME280;51124;53.394;-6.294;2022-11-15T10:23:22;98376.36;;;18.28;15.95
64698;BME280;51124;53.394;-6.294;2022-11-15T10:25:47;98370.70;;;18.99;15.68
64698;BME280;51124;53.394;-6.294;2022-11-15T10:28:24;98364.64;;;19.18;15.53
64698;BME280;51124;53.394;-6.294;2022-11-15T10:30:51;98365.07;;;18.77;15.60
64698;BME280;51124;53.394;-6.294;2022-11-15T10:33:27;98356.67;;;19.30;15.46
64698;BME280;51124;53.394;-6.294;2022-11-15T10:35:43;98349.96;;;19.99;14.88
64698;BME280;51124;53.394;-6.294;2022-11-15T10:38:17;98343.79;;;20.38;14.76
64698;BME280;51124;53.394;-6.294;2022-11-15T10:41:06;98337.54;;;20.68;14.42
64698;BME280;51124;53.394;-6.294;2022-11-15T10:43:20;98335.43;;;18.66;14.18
64698;BME280;51124;53.394;-6.294;2022-11-15T10:45:54;98336.82;;;17.95;13.84
64698;BME280;51124;53.394;-6.294;2022-11-15T10:48:27;98340.69;;;17.57;13.62
64698;BME280;51124;53.394;-6.294;2022-11-15T10:51:01;98336.80;;;18.28;13.33
64698;BME280;51124;53.394;-6.294;2022-11-15T10:53:36;98331.65;;;18.16;12.98
64698;BME280;51124;53.394;-6.294;2022-11-15T10:56:04;98326.18;;;17.47;12.99
64698;BME280;51124;53.394;-6.294;2022-11-15T10:58:33;98322.30;;;17.84;12.87
64698;BME280;51124;53.394;-6.294;2022-11-15T11:01:08;98322.51;;;17.67;12.67
64698;BME280;51124;53.394;-6.294;2022-11-15T11:03:35;98327.20;;;17.77;12.64
64698;BME280;51124;53.394;-6.294;2022-11-15T11:06:09;98323.31;;;17.56;12.41
64698;BME280;51124;53.394;-6.294;2022-11-15T11:08:33;98316.96;;;19.72;11.55
64698;BME280;51124;53.394;-6.294;2022-11-15T11:11:07;98329.39;;;18.24;12.04
64698;BME280;51124;53.394;-6.294;2022-11-15T11:13:40;98325.66;;;18.14;12.05
64698;BME280;51124;53.394;-6.294;2022-11-15T11:16:39;98323.92;;;18.25;12.04
64698;BME280;51124;53.394;-6.294;2022-11-15T11:18:51;98323.79;;;17.77;11.98
64698;BME280;51124;53.394;-6.294;2022-11-15T11:21:13;98321.17;;;18.60;11.67
64698;BME280;51124;53.394;-6.294;2022-11-15T11:23:51;98323.72;;;18.56;11.75
64698;BME280;51124;53.394;-6.294;2022-11-15T11:26:15;98314.93;;;18.82;11.66
64698;BME280;51124;53.394;-6.294;2022-11-15T11:28:41;98313.79;;;17.87;11.80
64698;BME280;51124;53.394;-6.294;2022-11-15T11:31:16;98306.26;;;18.10;11.86
64698;BME280;51124;53.394;-6.294;2022-11-15T11:33:35;98309.59;;;17.84;11.97
64698;BME280;51124;53.394;-6.294;2022-11-15T11:36:11;98303.29;;;18.21;11.91
64698;BME280;51124;53.394;-6.294;2022-11-15T11:38:39;98300.49;;;19.15;11.43
64698;BME280;51124;53.394;-6.294;2022-11-15T11:41:02;98300.73;;;18.64;11.43
64698;BME280;51124;53.394;-6.294;2022-11-15T11:43:34;98291.11;;;19.59;11.07
64698;BME280;51124;53.394;-6.294;2022-11-15T11:46:30;98278.72;;;19.12;11.25
64698;BME280;51124;53.394;-6.294;2022-11-15T11:48:40;98276.12;;;19.21;11.11
64698;BME280;51124;53.394;-6.294;2022-11-15T11:51:00;98270.20;;;19.41;11.29
64698;BME280;51124;53.394;-6.294;2022-11-15T11:53:27;98260.02;;;19.52;11.11
64698;BME280;51124;53.394;-6.294;2022-11-15T11:55:54;98256.78;;;20.16;10.67
64698;BME280;51124;53.394;-6.294;2022-11-15T11:58:23;98254.58;;;20.27;10.68
64698;BME280;51124;53.394;-6.294;2022-11-15T12:00:53;98254.30;;;20.52;10.74
64698;BME280;51124;53.394;-6.294;2022-11-15T12:03:24;98255.82;;;21.38;10.44
64698;BME280;51124;53.394;-6.294;2022-11-15T12:05:51;98254.05;;;19.89;10.93
64698;BME280;51124;53.394;-6.294;2022-11-15T12:08:25;98253.25;;;19.64;11.09
64698;BME280;51124;53.394;-6.294;2022-11-15T12:10:53;98258.65;;;20.09;11.07
64698;BME280;51124;53.394;-6.294;2022-11-15T12:13:23;98261.26;;;18.50;11.51
64698;BME280;51124;53.394;-6.294;2022-11-15T12:15:53;98268.12;;;18.32;11.67
64698;BME280;51124;53.394;-6.294;2022-11-15T12:18:19;98266.11;;;18.67;11.43
64698;BME280;51124;53.394;-6.294;2022-11-15T12:20:56;98268.67;;;20.69;9.15
64698;BME280;51124;53.394;-6.294;2022-11-15T12:23:24;98262.82;;;21.32;9.47
64698;BME280;51124;53.394;-6.294;2022-11-15T12:25:52;98268.59;;;19.50;10.00
64698;BME280;51124;53.394;-6.294;2022-11-15T12:28:19;98263.95;;;20.05;10.01
64698;BME280;51124;53.394;-6.294;2022-11-15T12:30:48;98259.78;;;20.42;10.01
64698;BME280;51124;53.394;-6.294;2022-11-15T12:33:47;98246.71;;;19.97;10.00
64698;BME280;51124;53.394;-6.294;2022-11-15T12:35:42;98239.95;;;18.76;10.31
64698;BME280;51124;53.394;-6.294;2022-11-15T12:38:09;98233.82;;;19.34;10.10
64698;BME280;51124;53.394;-6.294;2022-11-15T12:40:35;98229.21;;;20.22;10.18
64698;BME280;51124;53.394;-6.294;2022-11-15T12:45:37;98225.05;;;22.36;10.95
64698;BME280;51124;53.394;-6.294;2022-11-15T12:49:10;98220.30;;;19.95;11.17
64698;BME280;51124;53.394;-6.294;2022-11-15T12:50:57;98223.98;;;24.16;10.87
64698;BME280;51124;53.394;-6.294;2022-11-15T12:53:34;98219.06;;;23.15;11.72
64698;BME280;51124;53.394;-6.294;2022-11-15T12:55:30;98222.44;;;23.31;11.98
64698;BME280;51124;53.394;-6.294;2022-11-15T12:57:54;98226.22;;;21.65;13.18
64698;BME280;51124;53.394;-6.294;2022-11-15T13:00:37;98224.91;;;22.86;12.56
64698;BME280;51124;53.394;-6.294;2022-11-15T13:03:19;98219.62;;;23.90;12.40
64698;BME280;51124;53.394;-6.294;2022-11-15T13:06:08;98221.53;;;23.32;12.84
64698;BME280;51124;53.394;-6.294;2022-11-15T13:08:01;98216.49;;;23.87;12.62
64698;BME280;51124;53.394;-6.294;2022-11-15T13:10:35;98217.29;;;23.92;12.74
64698;BME280;51124;53.394;-6.294;2022-11-15T13:13:09;98216.29;;;23.48;12.87